Time;durP1;ratioP1;P1;durP2;ratioP2;P2;SDS_P1;SDS_P2;PMS_P1;PMS_P2;Temp;Humidity;BMP_temperature;BMP_pressure;BME280_temperature;BME280_humidity;BME280_pressure;Samples;Min_cycle;Max_cycle;Signal;HPM_P1;HPM_P2
2023/05/30 00:00:55;;;;;;;4.45;2.20;;;14.70;42.80;;;;;;5048105;28;20433;-77
2023/05/30 00:03:22;;;;;;;5.28;1.75;;;14.60;43.30;;;;;;5051080;28;20478;-77
2023/05/30 00:05:49;;;;;;;5.55;1.83;;;14.60;42.90;;;;;;5065681;28;20431;-76
2023/05/30 00:08:17;;;;;;;5.90;2.00;;;14.60;42.70;;;;;;5059851;28;21023;-77
2023/05/30 00:10:44;;;;;;;2.97;1.70;;;14.50;43.00;;;;;;5046397;28;20486;-75
2023/05/30 00:13:12;;;;;;;4.53;1.90;;;14.40;42.90;;;;;;5048270;28;20919;-76
2023/05/30 00:15:40;;;;;;;4.15;1.90;;;14.40;43.20;;;;;;5058125;28;20543;-75
2023/05/30 00:18:07;;;;;;;5.82;1.95;;;14.30;42.90;;;;;;5049771;28;20456;-77
2023/05/30 00:20:34;;;;;;;4.45;2.05;;;14.30;43.50;;;;;;5049200;28;20409;-76
2023/05/30 00:23:01;;;;;;;4.18;2.55;;;14.30;43.10;;;;;;5044177;28;20459;-77
2023/05/30 00:25:32;;;;;;;4.73;1.70;;;14.20;43.30;;;;;;5049279;28;20439;-77
2023/05/30 00:27:59;;;;;;;5.38;2.20;;;14.10;43.30;;;;;;5047762;28;20888;-77
2023/05/30 00:30:26;;;;;;;5.00;2.35;;;14.10;43.40;;;;;;5047018;28;20445;-76
2023/05/30 00:32:53;;;;;;;3.83;1.70;;;14.00;43.50;;;;;;5050041;28;20429;-77
2023/05/30 00:35:19;;;;;;;3.75;1.85;;;14.10;43.90;;;;;;5045810;28;20452;-77
2023/05/30 00:37:46;;;;;;;6.40;2.30;;;14.00;43.90;;;;;;5054933;28;20430;-77
2023/05/30 00:40:13;;;;;;;5.18;1.80;;;14.00;44.20;;;;;;5060650;28;20433;-76
2023/05/30 00:42:41;;;;;;;5.03;2.00;;;13.90;44.20;;;;;;5052590;28;20417;-78
2023/05/30 00:45:08;;;;;;;4.22;1.90;;;13.90;44.50;;;;;;5063826;28;20415;-76
2023/05/30 00:47:36;;;;;;;4.57;1.90;;;13.90;44.40;;;;;;5048307;28;20436;-76
2023/05/30 00:50:04;;;;;;;4.20;2.23;;;13.90;44.70;;;;;;5047934;28;20431;-75
2023/05/30 00:52:30;;;;;;;5.50;2.30;;;13.80;45.00;;;;;;5053723;28;20433;-76
2023/05/30 00:55:02;;;;;;;4.40;2.00;;;13.80;44.70;;;;;;5050202;28;20423;-76
2023/05/30 00:57:29;;;;;;;5.00;1.65;;;13.80;44.50;;;;;;5049132;28;20421;-75
2023/05/30 00:59:57;;;;;;;4.85;2.70;;;13.70;44.80;;;;;;5048603;28;20444;-76
2023/05/30 01:02:24;;;;;;;3.90;1.80;;;13.70;44.50;;;;;;5047829;28;20436;-76
2023/05/30 01:04:51;;;;;;;5.78;2.20;;;13.60;45.40;;;;;;5068621;28;20415;-75
2023/05/30 01:07:18;;;;;;;4.45;1.80;;;13.60;45.90;;;;;;5060760;28;20417;-77
2023/05/30 01:09:45;;;;;;;6.13;2.10;;;13.50;45.90;;;;;;5056982;28;20455;-76
2023/05/30 01:12:17;;;;;;;4.97;1.92;;;13.50;46.10;;;;;;5053030;28;20441;-77
2023/05/30 01:14:52;;;;;;;5.30;1.88;;;13.50;46.00;;;;;;5055099;28;20474;-76
2023/05/30 01:17:25;;;;;;;4.70;2.13;;;13.40;46.50;;;;;;5052316;28;20440;-76
2023/05/30 01:20:07;;;;;;;6.28;2.00;;;13.40;46.80;;;;;;5051991;28;20915;-76
2023/05/30 01:22:51;;;;;;;3.55;1.58;;;13.30;47.20;;;;;;5054922;28;20441;-76
2023/05/30 01:25:26;;;;;;;3.70;1.90;;;13.30;47.20;;;;;;5056174;28;20409;-76
2023/05/30 01:28:07;;;;;;;6.43;2.00;;;13.30;47.50;;;;;;5056809;28;20901;-75
2023/05/30 01:30:37;;;;;;;5.55;1.85;;;13.30;47.60;;;;;;5053024;28;20441;-77
2023/05/30 01:33:06;;;;;;;4.95;1.90;;;13.20;46.90;;;;;;5055290;28;20437;-76
2023/05/30 01:35:32;;;;;;;4.73;2.10;;;13.20;47.90;;;;;;5068350;28;20503;-76
2023/05/30 01:37:59;;;;;;;4.00;1.80;;;13.10;48.40;;;;;;5052005;28;20429;-76
2023/05/30 01:40:28;;;;;;;7.83;2.10;;;13.10;48.40;;;;;;5053140;28;20434;-76
2023/05/30 01:42:59;;;;;;;5.65;2.15;;;13.10;48.70;;;;;;5047804;28;20447;-76
2023/05/30 01:45:37;;;;;;;5.15;1.90;;;13.10;48.70;;;;;;5057840;28;20972;-75
2023/05/30 01:48:11;;;;;;;6.78;1.90;;;13.10;48.90;;;;;;5058880;28;20428;-76
2023/05/30 01:50:43;;;;;;;6.18;2.10;;;13.00;49.10;;;;;;5054370;28;20428;-75
2023/05/30 01:53:12;;;;;;;3.88;2.10;;;13.00;49.30;;;;;;5052912;28;20444;-75
2023/05/30 01:55:42;;;;;;;4.65;2.10;;;12.90;49.20;;;;;;5056813;28;20409;-76
2023/05/30 01:58:10;;;;;;;4.63;1.83;;;12.90;49.80;;;;;;5069023;28;20484;-77
2023/05/30 02:00:39;;;;;;;5.65;1.70;;;12.80;50.10;;;;;;5057736;28;20528;-76
2023/05/30 02:03:05;;;;;;;4.03;2.00;;;12.80;50.00;;;;;;5060582;28;20419;-76
2023/05/30 02:05:33;;;;;;;5.13;2.30;;;12.80;50.30;;;;;;5062729;28;21038;-76
2023/05/30 02:07:59;;;;;;;7.00;2.10;;;12.80;50.70;;;;;;5059775;28;20487;-75
2023/05/30 02:10:26;;;;;;;4.03;1.98;;;12.70;50.90;;;;;;5058591;28;20437;-76
2023/05/30 02:12:53;;;;;;;4.50;2.20;;;12.70;51.30;;;;;;5051237;28;20799;-76
2023/05/30 02:15:20;;;;;;;4.88;1.90;;;12.60;51.50;;;;;;5047780;28;20433;-75
2023/05/30 02:17:48;;;;;;;5.27;2.40;;;12.60;51.80;;;;;;5055586;28;20941;-75
2023/05/30 02:20:14;;;;;;;7.18;2.20;;;12.60;51.90;;;;;;5064475;28;20423;-76
2023/05/30 02:22:41;;;;;;;5.13;2.28;;;12.60;52.30;;;;;;5054610;28;20823;-76
2023/05/30 02:25:10;;;;;;;6.13;2.15;;;12.50;52.40;;;;;;5051186;28;20432;-75
2023/05/30 02:27:37;;;;;;;6.78;2.30;;;12.50;52.80;;;;;;5052667;28;20411;-77
2023/05/30 02:30:04;;;;;;;5.30;2.10;;;12.50;53.40;;;;;;5067891;28;20437;-77
2023/05/30 02:32:31;;;;;;;5.40;2.08;;;12.40;53.80;;;;;;5052812;28;20479;-77
2023/05/30 02:35:00;;;;;;;4.90;2.20;;;12.40;54.30;;;;;;5052031;28;20826;-77
2023/05/30 02:37:27;;;;;;;5.45;1.90;;;12.40;54.60;;;;;;5048485;28;20859;-76
2023/05/30 02:39:54;;;;;;;5.75;2.10;;;12.30;54.90;;;;;;5056891;28;20894;-76
2023/05/30 02:42:21;;;;;;;6.63;2.17;;;12.30;55.40;;;;;;5050439;28;20423;-75
2023/05/30 02:44:47;;;;;;;5.18;1.75;;;12.30;55.90;;;;;;5049845;28;20425;-76
2023/05/30 02:47:14;;;;;;;4.82;2.22;;;12.30;56.40;;;;;;5053922;28;20945;-76
2023/05/30 02:49:41;;;;;;;6.72;2.58;;;12.20;57.20;;;;;;5050046;28;20424;-76
2023/05/30 02:52:09;;;;;;;3.65;1.80;;;12.10;57.50;;;;;;5046394;28;20441;-77
2023/05/30 02:54:38;;;;;;;6.03;2.20;;;12.10;57.90;;;;;;5060257;28;20427;-76
2023/05/30 02:57:06;;;;;;;6.18;2.60;;;12.10;58.70;;;;;;5051175;28;20459;-76
2023/05/30 02:59:33;;;;;;;7.30;2.03;;;12.10;59.00;;;;;;5055180;28;20431;-76
2023/05/30 03:01:59;;;;;;;6.35;2.25;;;12.10;58.90;;;;;;5049100;28;20433;-76
2023/05/30 03:04:26;;;;;;;10.07;2.90;;;12.10;59.20;;;;;;5062456;28;20411;-76
2023/05/30 03:06:53;;;;;;;6.07;2.00;;;12.00;59.50;;;;;;5055348;28;20746;-77
2023/05/30 03:09:21;;;;;;;6.43;2.28;;;12.00;59.70;;;;;;5048697;28;20433;-76
2023/05/30 03:11:48;;;;;;;7.28;2.33;;;11.90;60.00;;;;;;5049235;28;20482;-75
2023/05/30 03:14:15;;;;;;;5.60;2.28;;;11.90;60.50;;;;;;5056823;28;20779;-77
2023/05/30 03:16:41;;;;;;;5.70;2.10;;;11.80;60.60;;;;;;5055205;28;20444;-77
2023/05/30 03:19:08;;;;;;;6.90;2.20;;;11.80;61.10;;;;;;5056983;28;20415;-76
2023/05/30 03:21:36;;;;;;;6.20;2.30;;;11.80;61.70;;;;;;5054032;28;20439;-76
2023/05/30 03:24:03;;;;;;;7.05;2.40;;;11.80;62.10;;;;;;5054311;28;20778;-77
2023/05/30 03:26:31;;;;;;;7.30;2.60;;;11.70;62.50;;;;;;5061339;28;20450;-75
2023/05/30 03:28:58;;;;;;;5.13;2.30;;;11.70;62.60;;;;;;5078906;28;20423;-76
2023/05/30 03:31:25;;;;;;;5.40;2.40;;;11.60;63.20;;;;;;5071697;28;20811;-76
2023/05/30 03:33:51;;;;;;;4.72;2.03;;;11.60;63.70;;;;;;5063312;22;20450;-73
2023/05/30 03:36:18;;;;;;;6.95;2.30;;;11.60;64.30;;;;;;5017900;28;20430;-72
2023/05/30 03:38:45;;;;;;;6.38;2.60;;;11.60;64.80;;;;;;5024841;28;20439;-73
2023/05/30 03:41:12;;;;;;;7.97;2.92;;;11.60;64.90;;;;;;5024112;28;20522;-72
2023/05/30 03:43:40;;;;;;;6.38;2.40;;;11.60;65.30;;;;;;5024588;28;20419;-72
2023/05/30 03:46:07;;;;;;;6.43;2.20;;;11.60;65.60;;;;;;5016208;28;20831;-72
2023/05/30 03:48:33;;;;;;;6.85;2.30;;;11.60;65.90;;;;;;5009761;28;20424;-74
2023/05/30 03:51:00;;;;;;;7.35;2.65;;;11.60;66.50;;;;;;5003016;28;20436;-72
2023/05/30 03:53:27;;;;;;;8.55;3.10;;;11.60;66.60;;;;;;5008340;28;20448;-72
2023/05/30 03:55:53;;;;;;;6.45;2.33;;;11.50;67.00;;;;;;5020887;28;20434;-72
2023/05/30 03:58:20;;;;;;;6.95;2.33;;;11.50;67.50;;;;;;5014842;28;20431;-72
2023/05/30 04:00:48;;;;;;;7.78;2.78;;;11.50;68.00;;;;;;5003699;28;20443;-72
2023/05/30 04:03:19;;;;;;;8.23;2.50;;;11.60;69.00;;;;;;5005108;28;20424;-68
2023/05/30 04:05:47;;;;;;;7.22;2.80;;;11.50;69.50;;;;;;4999144;28;20465;-69
2023/05/30 04:08:13;;;;;;;5.95;2.80;;;11.50;70.70;;;;;;5010027;28;20454;-69
2023/05/30 04:10:40;;;;;;;8.15;2.88;;;11.50;71.90;;;;;;5006447;28;20495;-68
2023/05/30 04:13:07;;;;;;;7.13;2.95;;;11.50;71.70;;;;;;5021693;28;20425;-68
2023/05/30 04:15:34;;;;;;;8.20;2.70;;;11.50;72.00;;;;;;5009082;28;20464;-68
2023/05/30 04:18:02;;;;;;;6.40;2.60;;;11.40;71.50;;;;;;4999122;28;20594;-69
2023/05/30 04:20:29;;;;;;;8.70;3.10;;;11.50;72.60;;;;;;5000427;28;20442;-69
2023/05/30 04:22:56;;;;;;;8.38;2.90;;;11.50;72.80;;;;;;5007908;28;20520;-69
2023/05/30 04:25:23;;;;;;;10.80;3.17;;;11.50;72.80;;;;;;5008402;28;20787;-69
2023/05/30 04:27:49;;;;;;;7.65;3.30;;;11.60;74.20;;;;;;5003013;28;20547;-67
2023/05/30 04:30:16;;;;;;;7.05;3.58;;;11.70;73.50;;;;;;5010307;28;20438;-69
2023/05/30 04:32:45;;;;;;;8.27;3.10;;;11.70;74.10;;;;;;5001345;28;20467;-69
2023/05/30 04:35:13;;;;;;;10.40;3.40;;;11.70;73.80;;;;;;4998335;28;20437;-69
2023/05/30 04:37:43;;;;;;;9.07;3.50;;;11.70;74.10;;;;;;4998416;28;20549;-69
2023/05/30 04:40:12;;;;;;;6.90;3.30;;;11.70;73.70;;;;;;5005732;28;20454;-69
2023/05/30 04:42:39;;;;;;;10.17;3.70;;;11.70;74.20;;;;;;5002300;28;20447;-71
2023/05/30 04:45:07;;;;;;;8.80;3.55;;;11.70;74.60;;;;;;5003150;28;21008;-71
2023/05/30 04:47:34;;;;;;;8.57;3.30;;;11.70;74.40;;;;;;5009051;28;20440;-71
2023/05/30 04:50:01;;;;;;;7.63;3.63;;;11.70;74.70;;;;;;5002026;28;20970;-70
2023/05/30 04:52:30;;;;;;;8.70;3.70;;;11.70;74.80;;;;;;5017694;28;20693;-71
2023/05/30 04:54:57;;;;;;;7.60;3.40;;;11.70;74.60;;;;;;5007928;28;20708;-71
2023/05/30 04:57:23;;;;;;;8.98;3.50;;;11.80;74.00;;;;;;5022201;28;20446;-71
2023/05/30 04:59:52;;;;;;;9.18;3.90;;;11.80;74.80;;;;;;5010735;28;20416;-70
2023/05/30 05:02:19;;;;;;;13.25;4.07;;;11.80;74.60;;;;;;5006954;28;20764;-71
2023/05/30 05:04:46;;;;;;;9.85;6.00;;;11.80;74.80;;;;;;5008277;28;20444;-71
2023/05/30 05:07:13;;;;;;;9.82;4.15;;;11.80;75.40;;;;;;5011121;28;20419;-71
2023/05/30 05:09:41;;;;;;;11.40;5.22;;;11.90;75.40;;;;;;5010581;28;20416;-71
2023/05/30 05:12:08;;;;;;;8.02;4.00;;;11.90;75.30;;;;;;4990401;28;20417;-70
2023/05/30 05:14:35;;;;;;;9.07;4.50;;;11.90;75.40;;;;;;5002495;28;20444;-70
2023/05/30 05:17:02;;;;;;;10.68;4.70;;;12.00;74.50;;;;;;5004185;28;20502;-69
2023/05/30 05:19:28;;;;;;;9.23;4.00;;;12.00;74.90;;;;;;5001546;28;20491;-70
2023/05/30 05:21:56;;;;;;;11.77;4.78;;;12.00;74.60;;;;;;5010621;28;20460;-71
2023/05/30 05:24:22;;;;;;;8.97;4.83;;;11.90;74.30;;;;;;5022478;28;20426;-71
2023/05/30 05:26:51;;;;;;;8.30;4.20;;;12.00;74.20;;;;;;5004016;28;20416;-70
2023/05/30 05:29:17;;;;;;;9.73;4.47;;;12.00;74.70;;;;;;5014203;28;20866;-70
2023/05/30 05:31:44;;;;;;;9.07;4.30;;;12.00;74.20;;;;;;5008077;28;20428;-70
2023/05/30 05:34:11;;;;;;;11.05;4.25;;;12.10;73.30;;;;;;5011239;28;20460;-70
2023/05/30 05:36:38;;;;;;;9.57;4.20;;;12.10;73.50;;;;;;5005093;28;20432;-70
2023/05/30 05:39:05;;;;;;;10.37;4.20;;;12.10;73.10;;;;;;5000811;28;20452;-70
2023/05/30 05:41:31;;;;;;;8.68;4.70;;;12.10;72.90;;;;;;5006635;28;20917;-70
2023/05/30 05:43:59;;;;;;;8.88;4.20;;;12.20;73.80;;;;;;5003211;28;20432;-70
2023/05/30 05:46:26;;;;;;;9.65;4.68;;;12.20;73.80;;;;;;5003025;28;20674;-71
2023/05/30 05:48:54;;;;;;;9.48;4.30;;;12.20;73.00;;;;;;5000296;28;20542;-71
2023/05/30 05:51:21;;;;;;;8.30;4.60;;;12.30;72.80;;;;;;5006641;28;20432;-70
2023/05/30 05:53:47;;;;;;;9.45;4.22;;;12.30;71.50;;;;;;5004624;28;20413;-70
2023/05/30 05:56:14;;;;;;;9.30;5.28;;;12.40;72.10;;;;;;5005622;28;20437;-70
2023/05/30 05:58:41;;;;;;;9.60;5.15;;;12.40;72.30;;;;;;5005110;28;20464;-70
2023/05/30 06:01:09;;;;;;;8.57;4.80;;;12.50;72.10;;;;;;5009600;28;20879;-71
2023/05/30 06:03:36;;;;;;;9.67;4.60;;;12.50;71.70;;;;;;5005320;28;20547;-70
2023/05/30 06:06:03;;;;;;;9.97;4.63;;;12.50;71.80;;;;;;5006103;28;20491;-69
2023/05/30 06:08:30;;;;;;;7.80;4.50;;;12.60;71.10;;;;;;5004939;28;20546;-69
2023/05/30 06:10:56;;;;;;;8.60;4.75;;;12.60;70.00;;;;;;5007657;28;20466;-69
2023/05/30 06:13:24;;;;;;;7.18;4.60;;;12.70;70.30;;;;;;5006251;28;20428;-70
2023/05/30 06:15:51;;;;;;;9.20;5.03;;;12.80;70.30;;;;;;5010348;28;20519;-70
2023/05/30 06:18:19;;;;;;;10.77;4.47;;;12.80;70.70;;;;;;5015502;28;20467;-69
2023/05/30 06:20:46;;;;;;;9.13;4.60;;;12.90;70.50;;;;;;5000875;28;20524;-70
2023/05/30 06:23:12;;;;;;;8.50;4.50;;;13.00;70.50;;;;;;5005593;28;20453;-70
2023/05/30 06:25:40;;;;;;;10.85;4.75;;;13.00;70.10;;;;;;5005200;28;20413;-69
2023/05/30 06:28:06;;;;;;;9.30;4.43;;;13.10;69.60;;;;;;5005296;28;20428;-69
2023/05/30 06:30:33;;;;;;;9.02;4.35;;;13.20;69.30;;;;;;5005763;28;20428;-69
2023/05/30 06:33:00;;;;;;;13.23;6.20;;;13.20;69.00;;;;;;5004355;28;20437;-70
2023/05/30 06:35:28;;;;;;;11.05;4.80;;;13.30;68.10;;;;;;5006092;28;20584;-69
2023/05/30 06:37:55;;;;;;;13.05;5.72;;;13.40;68.20;;;;;;5007293;28;20425;-69
2023/05/30 06:40:21;;;;;;;10.18;4.80;;;13.50;67.50;;;;;;5017292;28;20499;-69
2023/05/30 06:42:48;;;;;;;9.65;4.50;;;13.50;66.80;;;;;;5018993;28;20430;-69
2023/05/30 06:45:15;;;;;;;7.28;4.45;;;13.60;67.10;;;;;;5005212;28;20417;-70
2023/05/30 06:47:42;;;;;;;8.13;4.32;;;13.60;65.90;;;;;;5005341;28;20898;-70
2023/05/30 06:50:10;;;;;;;8.82;4.13;;;13.80;65.60;;;;;;5006411;28;20527;-70
2023/05/30 06:52:38;;;;;;;8.45;4.00;;;13.90;64.60;;;;;;5006066;28;20443;-70
2023/05/30 06:55:05;;;;;;;10.45;4.47;;;14.00;63.60;;;;;;5011359;28;20803;-70
2023/05/30 06:57:32;;;;;;;9.67;4.37;;;14.10;62.40;;;;;;5018656;28;20559;-70
2023/05/30 06:59:58;;;;;;;8.38;4.25;;;14.20;62.20;;;;;;5004811;28;20417;-70
2023/05/30 07:02:25;;;;;;;9.55;4.30;;;14.30;62.70;;;;;;5004463;28;20476;-70
2023/05/30 07:04:52;;;;;;;9.02;4.55;;;14.30;62.70;;;;;;5003527;28;20884;-70
2023/05/30 07:07:18;;;;;;;9.95;4.60;;;14.40;62.00;;;;;;5003685;28;20441;-70
2023/05/30 07:09:47;;;;;;;8.10;4.60;;;14.50;62.00;;;;;;5004180;28;20432;-71
2023/05/30 07:12:14;;;;;;;8.87;4.60;;;14.60;61.70;;;;;;5021083;28;20498;-71
2023/05/30 07:14:41;;;;;;;12.20;7.53;;;14.70;59.90;;;;;;5013482;28;20486;-69
2023/05/30 07:17:08;;;;;;;10.93;5.60;;;14.80;60.60;;;;;;5004260;28;20910;-71
2023/05/30 07:19:34;;;;;;;7.60;4.70;;;14.90;60.70;;;;;;5008982;28;20429;-70
2023/05/30 07:22:01;;;;;;;6.15;4.80;;;15.10;60.00;;;;;;5005229;28;20425;-69
2023/05/30 07:24:28;;;;;;;7.55;4.40;;;15.20;59.10;;;;;;5005207;28;20482;-71
2023/05/30 07:26:56;;;;;;;8.23;4.40;;;15.30;58.20;;;;;;5004667;28;20544;-68
2023/05/30 07:29:23;;;;;;;11.00;4.70;;;15.50;59.30;;;;;;5008622;28;20530;-71
2023/05/30 07:31:49;;;;;;;8.77;4.70;;;15.60;56.70;;;;;;5004040;28;20592;-71
2023/05/30 07:34:16;;;;;;;10.48;4.57;;;15.70;56.50;;;;;;5012033;28;20424;-71
2023/05/30 07:36:43;;;;;;;8.95;4.18;;;15.90;56.60;;;;;;5004164;28;20547;-71
2023/05/30 07:39:09;;;;;;;9.90;4.70;;;16.00;55.80;;;;;;5003325;28;20969;-71
2023/05/30 07:41:36;;;;;;;10.57;5.00;;;16.10;55.20;;;;;;5003114;28;20460;-71
2023/05/30 07:44:04;;;;;;;9.98;5.00;;;16.30;54.50;;;;;;5002806;28;20432;-71
2023/05/30 07:46:31;;;;;;;9.88;5.30;;;16.40;53.60;;;;;;5004356;28;20433;-69
2023/05/30 07:48:57;;;;;;;8.90;4.57;;;16.60;54.30;;;;;;5004189;28;20421;-71
2023/05/30 07:51:24;;;;;;;7.90;4.50;;;16.70;54.30;;;;;;5004430;28;20424;-72
2023/05/30 07:53:51;;;;;;;7.95;4.75;;;17.00;52.70;;;;;;5003826;28;20432;-71
2023/05/30 07:56:18;;;;;;;9.88;4.80;;;17.20;52.50;;;;;;5004502;28;20436;-72
2023/05/30 07:58:45;;;;;;;9.35;4.72;;;17.30;51.90;;;;;;5016654;28;20419;-72
2023/05/30 08:01:13;;;;;;;11.85;5.07;;;17.40;52.10;;;;;;5007248;28;20520;-71
2023/05/30 08:03:39;;;;;;;15.13;6.03;;;17.60;50.30;;;;;;5004624;28;20417;-71
2023/05/30 08:06:07;;;;;;;10.20;4.60;;;17.70;50.30;;;;;;5003472;28;20432;-72
2023/05/30 08:08:33;;;;;;;10.52;4.80;;;17.80;49.90;;;;;;5003510;28;20412;-71
2023/05/30 08:11:00;;;;;;;7.00;4.20;;;18.00;49.30;;;;;;4991472;28;20526;-72
2023/05/30 08:13:27;;;;;;;6.45;3.83;;;18.20;49.10;;;;;;5003575;28;20467;-71
2023/05/30 08:15:54;;;;;;;6.78;3.90;;;18.40;49.60;;;;;;5006571;28;21256;-71
2023/05/30 08:18:22;;;;;;;7.43;4.30;;;18.50;47.50;;;;;;5005951;28;20871;-71
2023/05/30 08:20:50;;;;;;;8.00;3.80;;;18.60;46.80;;;;;;5016390;28;20770;-72
2023/05/30 08:23:17;;;;;;;7.80;4.20;;;18.70;47.80;;;;;;5005432;28;20803;-71
2023/05/30 08:25:45;;;;;;;8.75;4.20;;;18.80;46.90;;;;;;5015562;28;20488;-72
2023/05/30 08:28:12;;;;;;;8.53;4.20;;;19.00;45.90;;;;;;5004226;28;20872;-72
2023/05/30 08:30:40;;;;;;;7.75;4.60;;;19.10;44.90;;;;;;5001882;28;20443;-72
2023/05/30 08:33:07;;;;;;;7.10;4.38;;;19.20;45.20;;;;;;5004614;28;20513;-71
2023/05/30 08:35:36;;;;;;;7.15;4.00;;;19.40;44.50;;;;;;5015246;28;20522;-72
2023/05/30 08:38:02;;;;;;;7.00;4.20;;;19.40;44.90;;;;;;5003876;28;20424;-72
2023/05/30 08:40:29;;;;;;;7.03;4.50;;;19.50;44.40;;;;;;5003530;28;20595;-72
2023/05/30 08:42:56;;;;;;;6.00;3.60;;;19.50;43.60;;;;;;5003853;28;20872;-71
2023/05/30 08:45:23;;;;;;;6.05;3.80;;;19.60;44.70;;;;;;5003536;28;20446;-71
2023/05/30 08:47:53;;;;;;;6.83;3.87;;;19.80;44.20;;;;;;5005717;28;20931;-72
2023/05/30 08:50:21;;;;;;;8.17;3.80;;;19.90;43.20;;;;;;4995577;28;20480;-72
2023/05/30 08:52:52;;;;;;;8.57;3.60;;;20.10;43.40;;;;;;5017500;28;20697;-72
2023/05/30 08:55:24;;;;;;;5.57;3.70;;;20.30;43.00;;;;;;5003667;28;20548;-71
2023/05/30 08:57:55;;;;;;;6.60;3.90;;;20.40;42.50;;;;;;5003508;28;20764;-70
2023/05/30 09:00:23;;;;;;;6.07;4.10;;;20.60;42.00;;;;;;5003456;28;20543;-70
2023/05/30 09:02:55;;;;;;;8.40;4.20;;;20.70;41.80;;;;;;5007505;28;20432;-73
2023/05/30 09:05:22;;;;;;;9.98;4.30;;;20.80;40.70;;;;;;5008438;28;20804;-70
2023/05/30 09:07:52;;;;;;;14.68;4.93;;;20.90;40.80;;;;;;5009242;28;20501;-70
2023/05/30 09:10:20;;;;;;;9.30;4.05;;;21.00;41.30;;;;;;5009206;28;20420;-70
2023/05/30 09:12:47;;;;;;;19.35;5.97;;;21.10;40.90;;;;;;5011722;28;20419;-71
2023/05/30 09:15:14;;;;;;;31.85;6.80;;;21.10;40.00;;;;;;5015219;28;20433;-71
2023/05/30 09:17:41;;;;;;;13.07;5.18;;;21.20;40.40;;;;;;5007410;28;20432;-71
2023/05/30 09:20:09;;;;;;;137.95;25.65;;;21.30;39.90;;;;;;5002932;28;20428;-71
2023/05/30 09:22:37;;;;;;;60.90;12.02;;;21.30;39.50;;;;;;5011320;28;20431;-71
2023/05/30 09:25:06;;;;;;;23.67;5.70;;;21.40;39.20;;;;;;5013588;28;20496;-71
2023/05/30 09:27:36;;;;;;;8.75;4.00;;;21.30;39.50;;;;;;5017878;28;20412;-71
2023/05/30 09:30:10;;;;;;;24.80;6.43;;;21.40;39.70;;;;;;5003303;28;20496;-71
2023/05/30 09:32:38;;;;;;;16.75;5.35;;;21.40;39.60;;;;;;5006291;28;20428;-71
2023/05/30 09:35:07;;;;;;;7.85;3.58;;;21.50;39.70;;;;;;5035170;22;20923;-69
2023/05/30 09:37:37;;;;;;;7.22;3.50;;;21.70;39.50;;;;;;5054782;28;20429;-71
2023/05/30 09:40:07;;;;;;;5.80;3.50;;;21.90;38.80;;;;;;5050741;28;20459;-70
2023/05/30 09:42:41;;;;;;;7.53;3.73;;;22.00;38.40;;;;;;5051227;28;20445;-72
2023/05/30 09:45:09;;;;;;;8.38;3.70;;;22.10;38.00;;;;;;5049089;28;20871;-70
2023/05/30 09:47:39;;;;;;;5.75;3.22;;;22.20;37.70;;;;;;5056121;28;20471;-70
2023/05/30 09:50:07;;;;;;;5.93;3.60;;;22.30;37.80;;;;;;5062190;28;20760;-70
2023/05/30 09:52:34;;;;;;;6.60;3.60;;;22.40;38.10;;;;;;5052854;28;20448;-70
2023/05/30 09:55:05;;;;;;;7.15;3.50;;;22.50;37.90;;;;;;5058397;28;20441;-70
2023/05/30 09:57:35;;;;;;;7.22;3.70;;;22.70;37.60;;;;;;5050531;28;20430;-69
2023/05/30 10:00:09;;;;;;;8.95;3.90;;;22.80;37.30;;;;;;5049129;28;20511;-70
2023/05/30 10:02:36;;;;;;;6.70;3.95;;;22.90;36.70;;;;;;5058539;28;20421;-70
2023/05/30 10:05:03;;;;;;;7.35;3.70;;;22.90;36.50;;;;;;5062593;28;20914;-70
2023/05/30 10:07:31;;;;;;;6.70;3.60;;;23.00;36.80;;;;;;5054774;28;20523;-69
2023/05/30 10:09:58;;;;;;;6.68;4.20;;;23.10;36.60;;;;;;5058334;28;20896;-70
2023/05/30 10:12:25;;;;;;;6.78;4.10;;;23.20;36.50;;;;;;5049942;28;20421;-69
2023/05/30 10:14:53;;;;;;;6.90;3.70;;;23.30;35.10;;;;;;5057453;28;20442;-72
2023/05/30 10:17:25;;;;;;;8.13;4.43;;;23.20;35.90;;;;;;5068781;28;20427;-70
2023/05/30 10:19:59;;;;;;;5.50;3.30;;;23.30;35.70;;;;;;5062793;28;20427;-69
2023/05/30 10:22:29;;;;;;;7.82;4.35;;;23.50;35.30;;;;;;5050394;28;20793;-72
2023/05/30 10:24:58;;;;;;;6.75;3.90;;;23.50;35.10;;;;;;5056035;28;20421;-72
2023/05/30 10:27:30;;;;;;;6.32;3.45;;;23.60;35.80;;;;;;5049938;28;20496;-71
2023/05/30 10:30:04;;;;;;;5.95;3.70;;;23.70;34.90;;;;;;5055791;28;20431;-70
2023/05/30 10:32:35;;;;;;;5.80;3.33;;;23.90;34.40;;;;;;5052906;28;20861;-70
2023/05/30 10:35:08;;;;;;;5.13;3.15;;;24.00;34.00;;;;;;5045909;28;20417;-69
2023/05/30 10:37:36;;;;;;;7.90;3.30;;;24.10;34.70;;;;;;5059964;28;20423;-70
2023/05/30 10:40:16;;;;;;;6.87;3.20;;;24.20;33.90;;;;;;5068346;28;20415;-70
2023/05/30 10:42:49;;;;;;;6.45;3.60;;;24.40;33.50;;;;;;5067345;28;20809;-71
2023/05/30 10:45:21;;;;;;;6.53;3.38;;;24.40;33.30;;;;;;5066298;28;20411;-71
2023/05/30 10:47:58;;;;;;;7.47;4.03;;;24.40;32.90;;;;;;5053905;28;20409;-71
2023/05/30 10:50:32;;;;;;;5.05;3.70;;;24.50;32.20;;;;;;5049308;28;20436;-71
2023/05/30 10:52:59;;;;;;;6.05;3.38;;;24.60;32.40;;;;;;5049419;28;20416;-71
2023/05/30 10:55:28;;;;;;;5.65;3.30;;;24.70;32.50;;;;;;5061861;28;20701;-71
2023/05/30 10:57:55;;;;;;;5.70;3.70;;;24.80;32.80;;;;;;5049437;28;20923;-71
2023/05/30 11:00:24;;;;;;;5.28;3.10;;;24.80;32.10;;;;;;5051144;28;20481;-71
2023/05/30 11:02:52;;;;;;;4.65;3.47;;;24.90;32.30;;;;;;5059683;28;20430;-71
2023/05/30 11:05:22;;;;;;;6.15;3.50;;;25.00;32.40;;;;;;5059516;28;20596;-72
2023/05/30 11:07:50;;;;;;;5.50;3.50;;;25.10;32.10;;;;;;5049339;28;20412;-70
2023/05/30 11:10:25;;;;;;;5.35;3.40;;;25.20;31.30;;;;;;5062758;28;20418;-70
2023/05/30 11:12:52;;;;;;;5.80;3.03;;;25.20;30.70;;;;;;5059319;28;20447;-70
2023/05/30 11:15:34;;;;;;;5.00;3.17;;;25.20;29.50;;;;;;5048293;28;20436;-72
2023/05/30 11:18:01;;;;;;;6.32;3.70;;;25.30;30.30;;;;;;5057386;28;20436;-72
2023/05/30 11:20:28;;;;;;;5.32;3.67;;;25.30;29.90;;;;;;5058790;28;20417;-72
2023/05/30 11:23:17;;;;;;;4.85;3.10;;;25.30;29.50;;;;;;5036702;28;20425;-70
2023/05/30 11:25:45;;;;;;;4.85;3.13;;;25.40;30.10;;;;;;5062924;28;20439;-71
2023/05/30 11:28:17;;;;;;;4.70;2.83;;;25.50;29.00;;;;;;5050935;28;20436;-71
2023/05/30 11:30:50;;;;;;;6.10;3.25;;;25.60;29.10;;;;;;5058182;28;20932;-72
2023/05/30 11:33:17;;;;;;;5.70;3.50;;;25.70;29.30;;;;;;5051752;28;20505;-71
2023/05/30 11:35:46;;;;;;;4.47;2.88;;;25.80;28.40;;;;;;5053267;28;20417;-71
2023/05/30 11:38:19;;;;;;;6.18;3.10;;;25.90;28.80;;;;;;5048577;28;20429;-71
2023/05/30 11:40:46;;;;;;;5.28;2.60;;;26.00;28.10;;;;;;5065689;28;20909;-71
2023/05/30 11:43:15;;;;;;;4.40;2.97;;;26.20;28.10;;;;;;5064014;28;20435;-71
2023/05/30 11:45:42;;;;;;;4.60;3.00;;;26.30;27.60;;;;;;5063779;28;20445;-71
2023/05/30 11:48:10;;;;;;;4.30;3.10;;;26.40;27.50;;;;;;5059034;28;20820;-71
2023/05/30 11:50:39;;;;;;;5.40;2.97;;;26.60;26.20;;;;;;5047317;28;20419;-71
2023/05/30 11:53:12;;;;;;;5.65;3.08;;;26.60;27.10;;;;;;5056109;28;20448;-71
2023/05/30 11:55:38;;;;;;;5.32;3.00;;;26.80;26.10;;;;;;5054542;28;20443;-72
2023/05/30 11:58:05;;;;;;;3.60;2.85;;;26.70;26.60;;;;;;5062040;28;20427;-72
2023/05/30 12:00:32;;;;;;;3.30;2.30;;;26.80;27.00;;;;;;5054883;28;20421;-71
2023/05/30 12:03:00;;;;;;;4.88;3.05;;;27.00;25.80;;;;;;5048372;28;20768;-71
2023/05/30 12:05:30;;;;;;;3.60;2.70;;;27.00;25.50;;;;;;5037768;28;20421;-72
2023/05/30 12:07:57;;;;;;;4.77;3.17;;;26.90;25.50;;;;;;5047077;28;20484;-72
2023/05/30 12:10:29;;;;;;;4.43;3.03;;;27.00;26.20;;;;;;5048048;28;20506;-71
2023/05/30 12:12:55;;;;;;;5.40;2.80;;;27.10;25.40;;;;;;5054117;28;20922;-72
2023/05/30 12:15:22;;;;;;;4.35;2.90;;;27.10;25.50;;;;;;5054209;28;20598;-71
2023/05/30 12:17:51;;;;;;;4.22;2.60;;;27.10;24.90;;;;;;5056222;28;20423;-72
2023/05/30 12:20:18;;;;;;;4.50;2.90;;;27.30;25.70;;;;;;5054207;28;20447;-71
2023/05/30 12:22:46;;;;;;;4.30;2.70;;;27.80;25.60;;;;;;5068115;28;20418;-73
2023/05/30 12:25:13;;;;;;;3.88;2.90;;;28.40;25.00;;;;;;5052595;28;20417;-71
2023/05/30 12:27:43;;;;;;;3.53;2.70;;;28.60;24.80;;;;;;5055932;28;20840;-71
2023/05/30 12:30:14;;;;;;;3.92;2.63;;;28.60;24.70;;;;;;5056501;28;20415;-72
2023/05/30 12:32:40;;;;;;;4.25;2.92;;;28.50;24.90;;;;;;5048299;28;20417;-72
2023/05/30 12:35:08;;;;;;;4.80;2.78;;;28.50;25.10;;;;;;5047812;28;20409;-72
2023/05/30 12:37:36;;;;;;;4.30;3.00;;;28.50;24.60;;;;;;5048607;28;20429;-71
2023/05/30 12:40:06;;;;;;;4.32;2.85;;;28.60;24.50;;;;;;5051297;28;20419;-71
2023/05/30 12:42:34;;;;;;;3.05;2.60;;;28.60;24.00;;;;;;5056883;28;20423;-70
2023/05/30 12:45:03;;;;;;;4.00;2.72;;;28.80;24.90;;;;;;5062398;28;20948;-72
2023/05/30 12:47:30;;;;;;;4.03;2.67;;;29.00;24.20;;;;;;5048297;28;20424;-71
2023/05/30 12:49:57;;;;;;;3.00;2.70;;;29.40;24.00;;;;;;5047323;28;20787;-70